createdAt,value
2023-05-13T00:00:16.613Z,2.40
2023-05-13T00:02:45.130Z,3.08
2023-05-13T00:05:13.441Z,2.78
2023-05-13T00:07:42.545Z,2.65
2023-05-13T00:10:11.220Z,2.67
2023-05-13T00:12:39.606Z,2.60
2023-05-13T00:15:08.220Z,2.80
2023-05-13T00:17:36.486Z,2.70
2023-05-13T00:20:05.210Z,2.50
2023-05-13T00:22:33.705Z,3.17
2023-05-13T00:25:01.968Z,2.50
2023-05-13T00:27:30.164Z,2.97
2023-05-13T00:30:00.584Z,2.55
2023-05-13T00:32:29.295Z,3.30
2023-05-13T00:34:57.554Z,2.75
2023-05-13T00:37:25.782Z,2.58
2023-05-13T00:39:54.197Z,2.50
2023-05-13T00:42:22.481Z,3.05
2023-05-13T00:44:50.761Z,2.63
2023-05-13T00:47:19.186Z,2.65
2023-05-13T00:49:47.481Z,2.10
2023-05-13T00:52:15.871Z,2.40
2023-05-13T00:54:44.102Z,2.25
2023-05-13T00:57:12.329Z,2.42
2023-05-13T00:59:41.025Z,2.60
2023-05-13T01:02:28.611Z,2.72
2023-05-13T01:05:35.371Z,2.22
2023-05-13T01:08:18.731Z,2.40
2023-05-13T01:11:00.399Z,2.20
2023-05-13T01:13:33.038Z,2.47
2023-05-13T01:16:20.039Z,2.40
2023-05-13T01:18:59.805Z,2.30
2023-05-13T01:21:28.854Z,2.20
2023-05-13T01:23:57.350Z,2.50
2023-05-13T01:26:27.522Z,2.53
2023-05-13T01:28:55.950Z,2.53
2023-05-13T01:31:25.403Z,2.65
2023-05-13T01:33:54.291Z,1.77
2023-05-13T01:36:22.766Z,2.60
2023-05-13T01:38:52.293Z,2.53
2023-05-13T01:41:20.466Z,2.35
2023-05-13T01:43:49.108Z,2.65
2023-05-13T01:46:17.722Z,2.45
2023-05-13T01:48:45.961Z,2.60
2023-05-13T01:51:14.428Z,2.67
2023-05-13T01:53:42.638Z,2.53
2023-05-13T01:56:11.745Z,2.40
2023-05-13T01:58:39.921Z,2.40
2023-05-13T02:01:08.121Z,2.78
2023-05-13T02:03:37.168Z,2.30
2023-05-13T02:06:05.620Z,2.70
2023-05-13T02:08:33.829Z,2.40
2023-05-13T02:11:02.261Z,2.60
2023-05-13T02:13:30.795Z,2.55
2023-05-13T02:15:59.259Z,2.30
2023-05-13T02:18:27.559Z,2.40
2023-05-13T02:20:55.780Z,2.70
2023-05-13T02:23:24.102Z,2.55
2023-05-13T02:25:52.360Z,2.20
2023-05-13T02:28:20.600Z,2.10
2023-05-13T02:30:49.096Z,2.40
2023-05-13T02:33:17.336Z,2.40
2023-05-13T02:35:45.518Z,2.20
2023-05-13T02:38:13.988Z,2.17
2023-05-13T02:40:42.237Z,2.03
2023-05-13T02:43:10.437Z,2.67
2023-05-13T02:45:41.742Z,2.47
2023-05-13T02:48:11.825Z,2.25
2023-05-13T02:50:41.348Z,2.33
2023-05-13T02:53:09.669Z,2.63
2023-05-13T02:55:37.897Z,2.78
2023-05-13T02:58:06.169Z,2.58
2023-05-13T03:00:34.383Z,2.55
2023-05-13T03:03:02.693Z,2.50
2023-05-13T03:05:30.996Z,2.20
2023-05-13T03:07:59.208Z,2.50
2023-05-13T03:10:27.435Z,2.63
2023-05-13T03:12:55.761Z,2.63
2023-05-13T03:15:24.113Z,2.80
2023-05-13T03:17:52.406Z,3.03
2023-05-13T03:20:20.874Z,2.50
2023-05-13T03:22:49.527Z,2.97
2023-05-13T03:25:17.865Z,2.67
2023-05-13T03:27:46.234Z,2.92
2023-05-13T03:30:15.133Z,2.85
2023-05-13T03:32:43.463Z,2.60
2023-05-13T03:35:11.714Z,3.03
2023-05-13T03:37:39.965Z,3.20
2023-05-13T03:40:08.799Z,2.50
2023-05-13T03:42:37.088Z,2.92
2023-05-13T03:45:05.552Z,2.47
2023-05-13T03:47:33.817Z,2.47
2023-05-13T03:50:02.008Z,2.85
2023-05-13T03:52:30.166Z,2.97
2023-05-13T03:54:58.357Z,3.15
2023-05-13T03:57:26.724Z,3.05
2023-05-13T03:59:54.970Z,2.70
2023-05-13T04:02:24.858Z,2.50
2023-05-13T04:04:53.143Z,2.92
2023-05-13T04:07:21.435Z,3.10
2023-05-13T04:09:49.641Z,2.78
2023-05-13T04:12:19.016Z,2.67
2023-05-13T04:14:47.840Z,3.03
2023-05-13T04:17:16.238Z,2.90
2023-05-13T04:19:44.541Z,3.38
2023-05-13T04:22:12.823Z,3.40
2023-05-13T04:24:41.210Z,3.08
2023-05-13T04:27:09.378Z,3.10
2023-05-13T04:29:37.623Z,3.50
2023-05-13T04:32:06.433Z,2.90
2023-05-13T04:34:34.660Z,3.25
2023-05-13T04:37:02.823Z,3.15
2023-05-13T04:39:31.265Z,3.30
2023-05-13T04:41:59.464Z,2.63
2023-05-13T04:44:27.675Z,2.55
2023-05-13T04:46:55.864Z,3.47
2023-05-13T04:49:24.031Z,3.22
2023-05-13T04:51:52.563Z,3.33
2023-05-13T04:54:21.563Z,3.00
2023-05-13T04:56:49.970Z,2.67
2023-05-13T04:59:18.349Z,2.67
2023-05-13T05:01:47.144Z,3.03
2023-05-13T05:04:15.622Z,3.25
2023-05-13T05:06:43.848Z,2.95
2023-05-13T05:09:12.320Z,3.50
2023-05-13T05:11:40.535Z,2.63
2023-05-13T05:14:08.805Z,2.33
2023-05-13T05:16:37.071Z,2.88
2023-05-13T05:19:05.317Z,3.67
2023-05-13T05:21:33.506Z,3.00
2023-05-13T05:24:02.782Z,3.22
2023-05-13T05:26:31.111Z,2.80
2023-05-13T05:28:59.323Z,2.72
2023-05-13T05:31:28.389Z,2.90
2023-05-13T05:33:57.408Z,3.10
2023-05-13T05:36:25.683Z,3.00
2023-05-13T05:38:53.864Z,3.30
2023-05-13T05:41:22.943Z,3.08
2023-05-13T05:43:51.305Z,3.47
2023-05-13T05:46:19.639Z,3.30
2023-05-13T05:48:48.263Z,2.60
2023-05-13T05:51:16.765Z,2.70
2023-05-13T05:53:45.069Z,2.60
2023-05-13T05:56:13.367Z,3.20
2023-05-13T05:58:41.674Z,2.53
2023-05-13T06:01:09.917Z,3.05
2023-05-13T06:03:38.357Z,3.00
2023-05-13T06:06:06.862Z,2.80
2023-05-13T06:08:35.021Z,3.10
2023-05-13T06:11:03.215Z,2.55
2023-05-13T06:13:31.582Z,3.25
2023-05-13T06:15:59.824Z,2.95
2023-05-13T06:18:28.075Z,2.90
2023-05-13T06:20:56.314Z,3.35
2023-05-13T06:23:24.530Z,2.97
2023-05-13T06:25:52.798Z,3.40
2023-05-13T06:28:21.033Z,2.80
2023-05-13T06:30:49.453Z,3.08
2023-05-13T06:33:17.748Z,3.10
2023-05-13T06:35:49.001Z,3.17
2023-05-13T06:38:20.582Z,3.38
2023-05-13T06:40:49.217Z,3.65
2023-05-13T06:43:18.868Z,2.60
2023-05-13T06:45:47.114Z,3.20
2023-05-13T06:48:15.555Z,3.22
2023-05-13T06:50:43.756Z,3.45
2023-05-13T06:53:14.871Z,4.10
2023-05-13T06:55:43.436Z,3.00
2023-05-13T06:58:12.105Z,3.33
2023-05-13T07:00:41.908Z,3.55
2023-05-13T07:03:10.152Z,3.22
2023-05-13T07:05:38.455Z,3.28
2023-05-13T07:08:09.753Z,4.45
2023-05-13T07:10:38.096Z,3.00
2023-05-13T07:13:06.377Z,3.35
2023-05-13T07:15:34.604Z,2.97
2023-05-13T07:18:02.895Z,3.67
2023-05-13T07:20:31.382Z,3.25
2023-05-13T07:22:59.750Z,3.35
2023-05-13T07:25:28.071Z,3.65
2023-05-13T07:27:56.280Z,3.13
2023-05-13T07:30:24.940Z,3.10
2023-05-13T07:32:54.163Z,3.35
2023-05-13T07:35:24.076Z,3.33
2023-05-13T07:37:52.442Z,2.90
2023-05-13T07:40:21.873Z,3.25
2023-05-13T07:42:50.427Z,3.08
2023-05-13T07:45:18.712Z,3.72
2023-05-13T07:47:46.989Z,2.80
2023-05-13T07:50:15.389Z,3.75
2023-05-13T07:52:44.488Z,3.40
2023-05-13T07:55:12.720Z,3.40
2023-05-13T07:57:40.936Z,3.33
2023-05-13T08:00:09.735Z,3.38
2023-05-13T08:02:43.646Z,3.33
2023-05-13T08:05:13.113Z,3.30
2023-05-13T08:07:41.370Z,3.15
2023-05-13T08:10:09.835Z,4.00
2023-05-13T08:12:38.145Z,3.58
2023-05-13T08:15:07.033Z,3.40
2023-05-13T08:17:36.228Z,3.35
2023-05-13T08:20:04.652Z,3.20
2023-05-13T08:22:32.862Z,3.75
2023-05-13T08:25:01.927Z,3.35
2023-05-13T08:27:30.197Z,3.58
2023-05-13T08:29:58.420Z,3.60
2023-05-13T08:32:26.707Z,3.35
2023-05-13T08:34:54.987Z,3.70
2023-05-13T08:37:23.290Z,3.08
2023-05-13T08:39:51.592Z,3.58
2023-05-13T08:42:23.850Z,3.85
2023-05-13T08:44:54.115Z,3.58
2023-05-13T08:47:37.294Z,3.38
2023-05-13T08:50:06.408Z,3.60
2023-05-13T08:52:34.711Z,3.20
2023-05-13T08:55:03.336Z,3.70
2023-05-13T08:57:31.805Z,3.15
2023-05-13T08:59:59.990Z,3.50
2023-05-13T09:02:28.636Z,3.28
2023-05-13T09:04:58.592Z,3.70
2023-05-13T09:07:26.806Z,3.63
2023-05-13T09:09:55.249Z,3.03
2023-05-13T09:12:52.539Z,3.58
2023-05-13T09:15:27.703Z,3.08
2023-05-13T09:18:06.770Z,3.42
2023-05-13T09:20:36.161Z,2.97
2023-05-13T09:23:09.481Z,3.42
2023-05-13T09:25:41.174Z,3.55
2023-05-13T09:28:09.614Z,3.30
2023-05-13T09:30:42.077Z,3.50
2023-05-13T09:33:12.936Z,3.85
2023-05-13T09:35:43.062Z,3.22
2023-05-13T09:38:19.387Z,3.25
2023-05-13T09:40:59.260Z,3.15
2023-05-13T09:43:29.824Z,3.33
2023-05-13T09:46:01.759Z,3.42
2023-05-13T09:48:32.496Z,3.55
2023-05-13T09:51:01.524Z,3.60
2023-05-13T09:53:30.179Z,3.40
2023-05-13T09:56:00.766Z,3.70
2023-05-13T09:58:31.491Z,3.92
2023-05-13T10:01:00.455Z,3.38
2023-05-13T10:03:30.809Z,3.30
2023-05-13T10:06:03.276Z,3.65
2023-05-13T10:08:31.871Z,3.45
2023-05-13T10:11:00.710Z,3.63
2023-05-13T10:13:32.692Z,3.03
2023-05-13T10:16:01.208Z,4.03
2023-05-13T10:18:29.827Z,3.08
2023-05-13T10:20:58.770Z,3.92
2023-05-13T10:23:28.231Z,3.88
2023-05-13T10:25:57.160Z,3.60
2023-05-13T10:28:27.300Z,3.60
2023-05-13T10:30:55.486Z,3.70
2023-05-13T10:33:24.010Z,3.63
2023-05-13T10:36:09.308Z,3.20
2023-05-13T10:38:58.976Z,3.53
2023-05-13T10:41:55.314Z,3.28
2023-05-13T10:44:24.776Z,3.85
2023-05-13T10:46:53.274Z,3.00
2023-05-13T10:49:25.506Z,3.67
2023-05-13T10:51:53.866Z,4.00
2023-05-13T10:54:25.575Z,4.13
2023-05-13T10:57:00.697Z,3.47
2023-05-13T10:59:31.272Z,3.80
2023-05-13T11:02:03.571Z,4.03
2023-05-13T11:04:32.060Z,3.72
2023-05-13T11:07:17.412Z,3.70
2023-05-13T11:09:52.111Z,3.47
2023-05-13T11:12:20.338Z,3.78
2023-05-13T11:14:49.672Z,3.28
2023-05-13T11:17:21.488Z,3.33
2023-05-13T11:19:52.515Z,3.78
2023-05-13T11:22:22.918Z,3.58
2023-05-13T11:25:11.327Z,3.78
2023-05-13T11:27:42.285Z,4.07
2023-05-13T11:30:24.315Z,3.50
2023-05-13T11:32:56.984Z,3.80
2023-05-13T11:35:32.399Z,3.80
2023-05-13T11:38:02.576Z,3.50
2023-05-13T11:40:33.293Z,4.10
2023-05-13T11:43:02.557Z,4.32
2023-05-13T11:45:31.314Z,3.78
2023-05-13T11:47:59.915Z,3.53
2023-05-13T11:50:33.356Z,4.20
2023-05-13T11:53:02.907Z,4.15
2023-05-13T11:55:38.894Z,4.03
2023-05-13T11:58:07.129Z,4.60
2023-05-13T12:00:36.253Z,4.63
2023-05-13T12:03:12.489Z,4.32
2023-05-13T12:05:41.093Z,5.07
2023-05-13T12:08:10.841Z,6.88
2023-05-13T12:10:45.023Z,6.00
2023-05-13T12:13:13.754Z,6.22
2023-05-13T12:15:43.180Z,6.10
2023-05-13T12:18:11.559Z,5.47
2023-05-13T12:20:39.741Z,6.25
2023-05-13T12:23:07.989Z,5.90
2023-05-13T12:25:39.199Z,5.97
2023-05-13T12:28:21.568Z,6.78
2023-05-13T12:31:04.011Z,6.93
2023-05-13T12:33:34.478Z,6.53
2023-05-13T12:36:26.552Z,7.82
2023-05-13T12:39:01.711Z,7.00
2023-05-13T12:41:35.793Z,6.88
2023-05-13T12:44:10.566Z,6.90
2023-05-13T12:46:39.013Z,7.35
2023-05-13T12:49:07.353Z,7.60
2023-05-13T12:51:35.908Z,6.85
2023-05-13T12:54:04.078Z,8.35
2023-05-13T12:56:32.359Z,8.68
2023-05-13T12:59:00.596Z,7.45
2023-05-13T13:01:28.880Z,7.90
2023-05-13T13:03:57.179Z,7.82
2023-05-13T13:06:25.494Z,7.95
2023-05-13T13:08:53.712Z,7.40
2023-05-13T13:11:22.375Z,8.05
2023-05-13T13:13:51.735Z,8.38
2023-05-13T13:16:20.059Z,8.95
2023-05-13T13:18:48.709Z,8.38
2023-05-13T13:21:16.887Z,8.32
2023-05-13T13:23:45.199Z,8.10
2023-05-13T13:26:13.481Z,7.13
2023-05-13T13:28:41.697Z,7.70
2023-05-13T13:31:10.021Z,7.38
2023-05-13T13:33:38.201Z,8.38
2023-05-13T13:36:06.760Z,7.75
2023-05-13T13:38:34.953Z,8.52
2023-05-13T13:41:03.149Z,7.38
2023-05-13T13:43:31.368Z,7.25
2023-05-13T13:45:59.618Z,7.03
2023-05-13T13:48:27.872Z,7.95
2023-05-13T13:50:56.126Z,8.32
2023-05-13T13:53:24.343Z,7.65
2023-05-13T13:55:52.534Z,7.68
2023-05-13T13:58:20.776Z,7.53
2023-05-13T14:00:49.000Z,8.38
2023-05-13T14:03:17.253Z,8.50
2023-05-13T14:05:45.677Z,7.80
2023-05-13T14:08:13.840Z,7.88
2023-05-13T14:10:42.052Z,8.27
2023-05-13T14:13:10.268Z,7.43
2023-05-13T14:15:39.883Z,7.15
2023-05-13T14:18:09.203Z,8.50
2023-05-13T14:20:38.885Z,7.90
2023-05-13T14:23:07.052Z,8.05
2023-05-13T14:25:35.377Z,7.95
2023-05-13T14:28:03.630Z,8.27
2023-05-13T14:30:31.855Z,8.60
2023-05-13T14:33:01.524Z,8.80
2023-05-13T14:35:29.960Z,8.18
2023-05-13T14:37:58.210Z,8.52
2023-05-13T14:40:26.457Z,8.38
2023-05-13T14:42:54.672Z,9.30
2023-05-13T14:45:23.744Z,8.27
2023-05-13T14:47:54.601Z,8.02
2023-05-13T14:50:23.107Z,8.30
2023-05-13T14:52:51.703Z,8.60
2023-05-13T14:55:19.935Z,7.88
2023-05-13T14:57:48.666Z,7.78
2023-05-13T15:00:17.477Z,7.82
2023-05-13T15:02:45.773Z,8.85
2023-05-13T15:05:14.056Z,8.18
2023-05-13T15:07:42.681Z,8.57
2023-05-13T15:10:11.313Z,7.72
2023-05-13T15:12:39.531Z,9.13
2023-05-13T15:15:08.339Z,8.65
2023-05-13T15:17:37.332Z,7.32
2023-05-13T15:20:06.274Z,8.45
2023-05-13T15:22:34.517Z,8.15
2023-05-13T15:25:02.893Z,8.27
2023-05-13T15:27:31.263Z,8.38
2023-05-13T15:29:59.453Z,8.50
2023-05-13T15:32:27.744Z,8.18
2023-05-13T15:34:55.992Z,8.52
2023-05-13T15:37:24.178Z,8.32
2023-05-13T15:39:52.403Z,8.70
2023-05-13T15:42:20.585Z,8.13
2023-05-13T15:44:48.766Z,7.93
2023-05-13T15:47:17.045Z,7.47
2023-05-13T15:49:45.330Z,8.68
2023-05-13T15:52:13.607Z,8.15
2023-05-13T15:54:41.816Z,7.60
2023-05-13T15:57:10.007Z,7.30
2023-05-13T15:59:38.196Z,8.25
2023-05-13T16:02:06.448Z,8.73
2023-05-13T16:04:34.839Z,8.55
2023-05-13T16:07:03.372Z,8.00
2023-05-13T16:09:31.587Z,8.25
2023-05-13T16:11:59.767Z,7.18
2023-05-13T16:14:28.412Z,8.43
2023-05-13T16:16:56.878Z,7.93
2023-05-13T16:19:25.032Z,7.63
2023-05-13T16:21:53.259Z,7.57
2023-05-13T16:24:21.609Z,7.05
2023-05-13T16:26:50.257Z,6.80
2023-05-13T16:29:18.757Z,6.43
2023-05-13T16:31:47.048Z,8.07
2023-05-13T16:34:15.591Z,7.28
2023-05-13T16:36:43.764Z,8.10
2023-05-13T16:39:12.052Z,7.90
2023-05-13T16:41:41.107Z,7.38
2023-05-13T16:44:09.323Z,7.90
2023-05-13T16:46:37.505Z,7.88
2023-05-13T16:49:05.710Z,7.70
2023-05-13T16:51:33.978Z,7.35
2023-05-13T16:54:02.241Z,7.18
2023-05-13T16:56:32.108Z,6.53
2023-05-13T16:59:00.438Z,7.13
2023-05-13T17:01:28.688Z,8.00
2023-05-13T17:03:56.898Z,6.40
2023-05-13T17:06:25.055Z,6.90
2023-05-13T17:08:53.254Z,7.03
2023-05-13T17:11:22.520Z,6.38
2023-05-13T17:13:51.017Z,6.95
2023-05-13T17:16:19.247Z,6.18
2023-05-13T17:18:47.484Z,6.65
2023-05-13T17:21:15.653Z,6.18
2023-05-13T17:23:43.832Z,6.43
2023-05-13T17:26:12.206Z,5.93
2023-05-13T17:28:42.936Z,6.63
2023-05-13T17:31:11.118Z,5.88
2023-05-13T17:33:39.357Z,6.45
2023-05-13T17:36:07.779Z,5.70
2023-05-13T17:38:35.958Z,5.82
2023-05-13T17:41:04.309Z,5.30
2023-05-13T17:43:32.504Z,5.13
2023-05-13T17:46:00.753Z,4.82
2023-05-13T17:48:29.373Z,5.60
2023-05-13T17:50:58.805Z,5.40
2023-05-13T17:53:27.231Z,5.72
2023-05-13T17:55:55.554Z,4.65
2023-05-13T17:58:23.753Z,4.38
2023-05-13T18:00:52.001Z,4.75
2023-05-13T18:03:22.460Z,3.92
2023-05-13T18:05:50.786Z,3.92
2023-05-13T18:08:19.083Z,3.95
2023-05-13T18:10:48.573Z,4.32
2023-05-13T18:13:16.861Z,3.97
2023-05-13T18:15:45.062Z,4.57
2023-05-13T18:18:14.196Z,4.75
2023-05-13T18:20:42.941Z,4.63
2023-05-13T18:23:11.263Z,4.15
2023-05-13T18:25:52.150Z,4.18
2023-05-13T18:28:23.733Z,3.88
2023-05-13T18:30:52.051Z,4.13
2023-05-13T18:33:25.611Z,4.38
2023-05-13T18:35:54.057Z,4.05
2023-05-13T18:38:22.262Z,3.85
2023-05-13T18:40:50.565Z,4.28
2023-05-13T18:43:18.753Z,4.15
2023-05-13T18:45:47.043Z,4.30
2023-05-13T18:48:15.331Z,4.55
2023-05-13T18:50:43.563Z,4.20
2023-05-13T18:53:11.783Z,4.05
2023-05-13T18:55:40.194Z,3.83
2023-05-13T18:58:08.381Z,3.60
2023-05-13T19:00:38.239Z,4.22
2023-05-13T19:03:06.826Z,3.70
2023-05-13T19:05:35.219Z,4.45
2023-05-13T19:08:04.144Z,4.35
2023-05-13T19:10:36.906Z,4.03
2023-05-13T19:13:08.022Z,4.43
2023-05-13T19:15:36.771Z,3.20
2023-05-13T19:18:05.068Z,3.40
2023-05-13T19:20:33.353Z,4.13
2023-05-13T19:23:01.668Z,4.22
2023-05-13T19:25:30.114Z,3.33
2023-05-13T19:27:58.415Z,3.47
2023-05-13T19:30:26.624Z,3.70
2023-05-13T19:32:54.988Z,3.60
2023-05-13T19:35:24.268Z,4.03
2023-05-13T19:37:52.523Z,4.00
2023-05-13T19:40:20.994Z,3.50
2023-05-13T19:42:50.519Z,3.20
2023-05-13T19:45:22.345Z,3.63
2023-05-13T19:47:54.088Z,3.60
2023-05-13T19:50:22.832Z,3.33
2023-05-13T19:52:51.228Z,3.50
2023-05-13T19:55:19.580Z,3.22
2023-05-13T19:57:48.617Z,3.65
2023-05-13T20:00:17.717Z,3.40
2023-05-13T20:02:46.075Z,3.00
2023-05-13T20:05:14.363Z,3.13
2023-05-13T20:07:42.556Z,3.25
2023-05-13T20:10:11.721Z,3.03
2023-05-13T20:12:40.076Z,3.13
2023-05-13T20:15:08.579Z,2.95
2023-05-13T20:17:36.824Z,3.20
2023-05-13T20:20:05.964Z,3.30
2023-05-13T20:22:34.177Z,2.88
2023-05-13T20:25:02.450Z,3.20
2023-05-13T20:27:30.776Z,3.15
2023-05-13T20:30:00.951Z,3.15
2023-05-13T20:32:29.257Z,2.90
2023-05-13T20:34:57.525Z,2.95
2023-05-13T20:37:25.722Z,2.67
2023-05-13T20:39:53.882Z,2.92
2023-05-13T20:42:25.056Z,3.08
2023-05-13T20:44:53.305Z,2.90
2023-05-13T20:47:22.336Z,2.80
2023-05-13T20:49:50.898Z,3.10
2023-05-13T20:52:19.159Z,2.88
2023-05-13T20:54:47.386Z,2.70
2023-05-13T20:57:15.649Z,3.10
2023-05-13T20:59:43.898Z,2.83
2023-05-13T21:02:12.178Z,3.17
2023-05-13T21:04:40.559Z,2.83
2023-05-13T21:07:08.786Z,3.13
2023-05-13T21:09:36.993Z,2.78
2023-05-13T21:12:05.452Z,2.60
2023-05-13T21:14:33.964Z,2.90
2023-05-13T21:17:04.243Z,2.60
2023-05-13T21:19:32.494Z,2.65
2023-05-13T21:22:02.434Z,2.70
2023-05-13T21:24:30.644Z,2.50
2023-05-13T21:26:58.847Z,2.70
2023-05-13T21:29:27.188Z,2.70
2023-05-13T21:31:55.543Z,2.50
2023-05-13T21:34:23.844Z,2.60
2023-05-13T21:36:53.841Z,2.50
2023-05-13T21:39:22.022Z,2.33
2023-05-13T21:41:50.558Z,2.65
2023-05-13T21:44:18.733Z,3.10
2023-05-13T21:46:46.995Z,3.00
2023-05-13T21:49:15.222Z,2.83
2023-05-13T21:51:43.428Z,2.83
2023-05-13T21:54:11.768Z,2.80
2023-05-13T21:56:39.981Z,3.10
2023-05-13T21:59:08.203Z,3.00
2023-05-13T22:01:36.527Z,3.15
2023-05-13T22:04:04.776Z,3.10
2023-05-13T22:06:34.338Z,2.97
2023-05-13T22:09:02.638Z,3.00
2023-05-13T22:11:30.913Z,2.80
2023-05-13T22:14:01.149Z,3.17
2023-05-13T22:16:29.490Z,2.80
2023-05-13T22:19:00.555Z,2.80
2023-05-13T22:21:28.828Z,2.90
2023-05-13T22:23:57.171Z,3.28
2023-05-13T22:26:25.414Z,2.60
2023-05-13T22:28:53.743Z,2.70
2023-05-13T22:31:22.270Z,2.50
2023-05-13T22:33:50.744Z,2.83
2023-05-13T22:36:18.982Z,2.67
2023-05-13T22:38:47.415Z,2.53
2023-05-13T22:41:15.627Z,2.65
2023-05-13T22:43:43.812Z,2.72
2023-05-13T22:46:12.099Z,2.60
2023-05-13T22:48:40.348Z,2.75
2023-05-13T22:51:08.604Z,2.40
2023-05-13T22:53:36.872Z,2.40
2023-05-13T22:56:05.200Z,2.42
2023-05-13T22:58:33.390Z,2.40
2023-05-13T23:01:01.605Z,2.63
2023-05-13T23:03:29.910Z,2.63
2023-05-13T23:05:58.113Z,2.50
2023-05-13T23:08:26.524Z,2.50
2023-05-13T23:10:54.723Z,2.70
2023-05-13T23:13:22.937Z,2.38
2023-05-13T23:15:51.326Z,2.28
2023-05-13T23:18:19.611Z,2.00
2023-05-13T23:20:56.516Z,2.75
2023-05-13T23:23:25.074Z,2.30
2023-05-13T23:25:53.325Z,2.00
2023-05-13T23:28:21.563Z,2.28
2023-05-13T23:30:57.446Z,2.17
2023-05-13T23:33:25.668Z,2.30
2023-05-13T23:35:55.147Z,2.45
2023-05-13T23:38:24.313Z,2.00
2023-05-13T23:40:52.591Z,2.00
2023-05-13T23:43:20.898Z,2.20
2023-05-13T23:45:49.490Z,1.98
2023-05-13T23:48:17.789Z,1.98
2023-05-13T23:50:45.987Z,2.13
2023-05-13T23:53:14.238Z,2.05
2023-05-13T23:55:42.403Z,2.10
2023-05-13T23:58:10.597Z,2.72
